sensor_id;sensor_type;location;lat;lon;timestamp;P1;durP1;ratioP1;P2;durP2;ratioP2
52015;SDS011;38032;53.326;6.472;2022-12-19T00:03:41;31.77;;;18.10;;
52015;SDS011;38032;53.326;6.472;2022-12-19T00:06:08;33.15;;;17.95;;
52015;SDS011;38032;53.326;6.472;2022-12-19T00:08:34;29.38;;;17.90;;
52015;SDS011;38032;53.326;6.472;2022-12-19T00:11:00;32.00;;;18.83;;
52015;SDS011;38032;53.326;6.472;2022-12-19T00:13:28;29.88;;;17.65;;
52015;SDS011;38032;53.326;6.472;2022-12-19T00:15:59;33.40;;;18.33;;
52015;SDS011;38032;53.326;6.472;2022-12-19T00:18:26;30.10;;;18.10;;
52015;SDS011;38032;53.326;6.472;2022-12-19T00:20:54;31.17;;;18.90;;
52015;SDS011;38032;53.326;6.472;2022-12-19T00:23:23;34.28;;;18.77;;
52015;SDS011;38032;53.326;6.472;2022-12-19T00:25:48;32.58;;;17.70;;
52015;SDS011;38032;53.326;6.472;2022-12-19T00:28:14;35.88;;;18.08;;
52015;SDS011;38032;53.326;6.472;2022-12-19T00:30:40;33.90;;;18.40;;
52015;SDS011;38032;53.326;6.472;2022-12-19T00:33:06;34.78;;;19.38;;
52015;SDS011;38032;53.326;6.472;2022-12-19T00:35:32;34.42;;;18.58;;
52015;SDS011;38032;53.326;6.472;2022-12-19T00:37:58;32.13;;;18.80;;
52015;SDS011;38032;53.326;6.472;2022-12-19T00:40:24;32.47;;;18.70;;
52015;SDS011;38032;53.326;6.472;2022-12-19T00:42:49;32.83;;;18.35;;
52015;SDS011;38032;53.326;6.472;2022-12-19T00:45:15;33.85;;;18.77;;
52015;SDS011;38032;53.326;6.472;2022-12-19T00:47:41;33.00;;;19.05;;
52015;SDS011;38032;53.326;6.472;2022-12-19T00:50:07;33.85;;;19.15;;
52015;SDS011;38032;53.326;6.472;2022-12-19T00:52:33;31.92;;;19.10;;
52015;SDS011;38032;53.326;6.472;2022-12-19T00:54:59;32.03;;;18.58;;
52015;SDS011;38032;53.326;6.472;2022-12-19T00:57:25;35.80;;;19.38;;
52015;SDS011;38032;53.326;6.472;2022-12-19T00:59:51;36.28;;;19.40;;
52015;SDS011;38032;53.326;6.472;2022-12-19T01:02:17;31.63;;;18.38;;
52015;SDS011;38032;53.326;6.472;2022-12-19T01:04:43;32.97;;;18.92;;
52015;SDS011;38032;53.326;6.472;2022-12-19T01:07:09;36.75;;;19.15;;
52015;SDS011;38032;53.326;6.472;2022-12-19T01:09:35;35.88;;;19.27;;
52015;SDS011;38032;53.326;6.472;2022-12-19T01:12:02;35.78;;;19.58;;
52015;SDS011;38032;53.326;6.472;2022-12-19T01:14:48;33.08;;;18.83;;
52015;SDS011;38032;53.326;6.472;2022-12-19T01:17:15;35.65;;;18.88;;
52015;SDS011;38032;53.326;6.472;2022-12-19T01:19:41;36.25;;;20.08;;
52015;SDS011;38032;53.326;6.472;2022-12-19T01:22:08;33.63;;;19.95;;
52015;SDS011;38032;53.326;6.472;2022-12-19T01:24:34;36.58;;;19.75;;
52015;SDS011;38032;53.326;6.472;2022-12-19T01:27:00;35.05;;;19.42;;
52015;SDS011;38032;53.326;6.472;2022-12-19T01:29:26;35.92;;;19.77;;
52015;SDS011;38032;53.326;6.472;2022-12-19T01:31:52;36.35;;;18.13;;
52015;SDS011;38032;53.326;6.472;2022-12-19T01:34:18;37.25;;;19.65;;
52015;SDS011;38032;53.326;6.472;2022-12-19T01:36:43;33.88;;;20.15;;
52015;SDS011;38032;53.326;6.472;2022-12-19T01:39:09;35.45;;;19.33;;
52015;SDS011;38032;53.326;6.472;2022-12-19T01:41:35;37.00;;;19.52;;
52015;SDS011;38032;53.326;6.472;2022-12-19T01:44:03;35.45;;;18.35;;
52015;SDS011;38032;53.326;6.472;2022-12-19T01:48:59;34.85;;;19.17;;
52015;SDS011;38032;53.326;6.472;2022-12-19T01:51:29;35.25;;;18.02;;
52015;SDS011;38032;53.326;6.472;2022-12-19T01:54:03;33.30;;;19.40;;
52015;SDS011;38032;53.326;6.472;2022-12-19T01:56:33;35.83;;;19.20;;
52015;SDS011;38032;53.326;6.472;2022-12-19T01:59:05;35.88;;;19.08;;
52015;SDS011;38032;53.326;6.472;2022-12-19T02:01:35;32.35;;;18.30;;
52015;SDS011;38032;53.326;6.472;2022-12-19T02:04:03;31.85;;;18.40;;
52015;SDS011;38032;53.326;6.472;2022-12-19T02:06:30;32.88;;;18.25;;
52015;SDS011;38032;53.326;6.472;2022-12-19T02:08:59;36.15;;;19.00;;
52015;SDS011;38032;53.326;6.472;2022-12-19T02:11:25;36.60;;;18.83;;
52015;SDS011;38032;53.326;6.472;2022-12-19T02:13:51;37.42;;;19.63;;
52015;SDS011;38032;53.326;6.472;2022-12-19T02:16:22;36.80;;;19.02;;
52015;SDS011;38032;53.326;6.472;2022-12-19T02:27:18;33.08;;;18.17;;
52015;SDS011;38032;53.326;6.472;2022-12-19T02:30:06;34.88;;;20.05;;
52015;SDS011;38032;53.326;6.472;2022-12-19T02:32:56;39.92;;;21.60;;
52015;SDS011;38032;53.326;6.472;2022-12-19T02:35:33;40.13;;;20.52;;
52015;SDS011;38032;53.326;6.472;2022-12-19T02:38:06;41.22;;;21.75;;
52015;SDS011;38032;53.326;6.472;2022-12-19T02:40:41;39.65;;;20.77;;
52015;SDS011;38032;53.326;6.472;2022-12-19T02:43:14;36.50;;;21.30;;
52015;SDS011;38032;53.326;6.472;2022-12-19T02:45:42;36.08;;;20.00;;
52015;SDS011;38032;53.326;6.472;2022-12-19T02:48:09;39.88;;;21.55;;
52015;SDS011;38032;53.326;6.472;2022-12-19T02:50:36;38.00;;;21.40;;
52015;SDS011;38032;53.326;6.472;2022-12-19T02:53:04;45.28;;;23.63;;
52015;SDS011;38032;53.326;6.472;2022-12-19T02:55:31;41.95;;;22.55;;
52015;SDS011;38032;53.326;6.472;2022-12-19T02:58:12;40.78;;;22.52;;
52015;SDS011;38032;53.326;6.472;2022-12-19T03:01:00;44.10;;;21.75;;
52015;SDS011;38032;53.326;6.472;2022-12-19T03:03:51;41.15;;;21.40;;
52015;SDS011;38032;53.326;6.472;2022-12-19T03:06:45;39.15;;;21.35;;
52015;SDS011;38032;53.326;6.472;2022-12-19T03:11:49;41.03;;;22.65;;
52015;SDS011;38032;53.326;6.472;2022-12-19T03:14:24;42.78;;;21.67;;
52015;SDS011;38032;53.326;6.472;2022-12-19T03:16:52;39.88;;;21.95;;
52015;SDS011;38032;53.326;6.472;2022-12-19T03:19:18;41.72;;;23.08;;
52015;SDS011;38032;53.326;6.472;2022-12-19T03:21:45;44.45;;;23.13;;
52015;SDS011;38032;53.326;6.472;2022-12-19T03:24:14;42.30;;;23.95;;
52015;SDS011;38032;53.326;6.472;2022-12-19T03:29:18;41.00;;;22.30;;
52015;SDS011;38032;53.326;6.472;2022-12-19T03:31:50;42.88;;;22.52;;
52015;SDS011;38032;53.326;6.472;2022-12-19T03:34:24;45.88;;;24.02;;
52015;SDS011;38032;53.326;6.472;2022-12-19T03:37:12;44.28;;;23.45;;
52015;SDS011;38032;53.326;6.472;2022-12-19T03:39:41;44.28;;;23.75;;
52015;SDS011;38032;53.326;6.472;2022-12-19T03:42:13;43.70;;;23.67;;
52015;SDS011;38032;53.326;6.472;2022-12-19T03:45:00;40.80;;;22.55;;
52015;SDS011;38032;53.326;6.472;2022-12-19T03:47:31;41.60;;;22.38;;
52015;SDS011;38032;53.326;6.472;2022-12-19T03:50:04;36.88;;;21.98;;
52015;SDS011;38032;53.326;6.472;2022-12-19T03:55:17;46.95;;;24.00;;
52015;SDS011;38032;53.326;6.472;2022-12-19T03:57:50;45.13;;;24.35;;
52015;SDS011;38032;53.326;6.472;2022-12-19T04:00:20;44.75;;;24.00;;
52015;SDS011;38032;53.326;6.472;2022-12-19T04:02:49;47.55;;;24.80;;
52015;SDS011;38032;53.326;6.472;2022-12-19T04:05:19;52.03;;;25.70;;
52015;SDS011;38032;53.326;6.472;2022-12-19T04:07:47;50.17;;;25.50;;
52015;SDS011;38032;53.326;6.472;2022-12-19T04:10:17;53.50;;;26.83;;
52015;SDS011;38032;53.326;6.472;2022-12-19T04:12:53;53.17;;;26.92;;
52015;SDS011;38032;53.326;6.472;2022-12-19T04:15:42;50.88;;;26.17;;
52015;SDS011;38032;53.326;6.472;2022-12-19T04:18:17;52.42;;;26.83;;
52015;SDS011;38032;53.326;6.472;2022-12-19T04:20:48;52.72;;;27.45;;
52015;SDS011;38032;53.326;6.472;2022-12-19T04:23:36;55.20;;;27.77;;
52015;SDS011;38032;53.326;6.472;2022-12-19T04:26:08;56.70;;;27.77;;
52015;SDS011;38032;53.326;6.472;2022-12-19T04:28:40;56.38;;;28.35;;
52015;SDS011;38032;53.326;6.472;2022-12-19T04:31:12;57.08;;;26.90;;
52015;SDS011;38032;53.326;6.472;2022-12-19T04:33:39;61.97;;;28.42;;
52015;SDS011;38032;53.326;6.472;2022-12-19T04:36:05;59.63;;;28.13;;
52015;SDS011;38032;53.326;6.472;2022-12-19T04:38:31;52.38;;;28.13;;
52015;SDS011;38032;53.326;6.472;2022-12-19T04:40:57;56.80;;;28.30;;
52015;SDS011;38032;53.326;6.472;2022-12-19T04:43:23;59.60;;;29.98;;
52015;SDS011;38032;53.326;6.472;2022-12-19T04:45:49;56.42;;;27.00;;
52015;SDS011;38032;53.326;6.472;2022-12-19T04:48:15;57.38;;;28.52;;
52015;SDS011;38032;53.326;6.472;2022-12-19T04:50:41;51.08;;;24.77;;
52015;SDS011;38032;53.326;6.472;2022-12-19T04:53:07;51.85;;;27.98;;
52015;SDS011;38032;53.326;6.472;2022-12-19T04:55:33;51.85;;;26.10;;
52015;SDS011;38032;53.326;6.472;2022-12-19T04:57:59;52.70;;;25.85;;
52015;SDS011;38032;53.326;6.472;2022-12-19T05:00:30;53.80;;;27.08;;
52015;SDS011;38032;53.326;6.472;2022-12-19T05:02:57;54.80;;;26.48;;
52015;SDS011;38032;53.326;6.472;2022-12-19T05:05:23;52.38;;;26.75;;
52015;SDS011;38032;53.326;6.472;2022-12-19T05:07:49;53.88;;;27.45;;
52015;SDS011;38032;53.326;6.472;2022-12-19T05:10:16;50.85;;;26.00;;
52015;SDS011;38032;53.326;6.472;2022-12-19T05:12:42;55.55;;;26.95;;
52015;SDS011;38032;53.326;6.472;2022-12-19T05:15:08;53.38;;;26.38;;
52015;SDS011;38032;53.326;6.472;2022-12-19T05:17:34;50.42;;;27.42;;
52015;SDS011;38032;53.326;6.472;2022-12-19T05:20:00;51.78;;;27.38;;
52015;SDS011;38032;53.326;6.472;2022-12-19T05:22:26;55.80;;;28.27;;
52015;SDS011;38032;53.326;6.472;2022-12-19T05:24:52;55.97;;;27.08;;
52015;SDS011;38032;53.326;6.472;2022-12-19T05:27:18;52.92;;;26.73;;
52015;SDS011;38032;53.326;6.472;2022-12-19T05:29:44;55.42;;;27.27;;
52015;SDS011;38032;53.326;6.472;2022-12-19T05:32:10;50.95;;;27.38;;
52015;SDS011;38032;53.326;6.472;2022-12-19T05:34:36;58.13;;;28.92;;
52015;SDS011;38032;53.326;6.472;2022-12-19T05:37:01;56.22;;;27.50;;
52015;SDS011;38032;53.326;6.472;2022-12-19T05:39:28;53.15;;;27.58;;
52015;SDS011;38032;53.326;6.472;2022-12-19T05:41:54;49.33;;;25.67;;
52015;SDS011;38032;53.326;6.472;2022-12-19T05:44:20;55.67;;;26.80;;
52015;SDS011;38032;53.326;6.472;2022-12-19T05:46:46;51.97;;;27.30;;
52015;SDS011;38032;53.326;6.472;2022-12-19T05:49:12;48.95;;;25.85;;
52015;SDS011;38032;53.326;6.472;2022-12-19T05:51:41;48.38;;;24.80;;
52015;SDS011;38032;53.326;6.472;2022-12-19T05:54:07;53.95;;;26.45;;
52015;SDS011;38032;53.326;6.472;2022-12-19T05:56:32;47.75;;;25.10;;
52015;SDS011;38032;53.326;6.472;2022-12-19T05:58:58;51.05;;;25.92;;
52015;SDS011;38032;53.326;6.472;2022-12-19T06:01:25;44.50;;;23.67;;
52015;SDS011;38032;53.326;6.472;2022-12-19T06:03:52;48.47;;;25.50;;
52015;SDS011;38032;53.326;6.472;2022-12-19T06:06:21;49.58;;;24.42;;
52015;SDS011;38032;53.326;6.472;2022-12-19T06:08:53;44.05;;;21.88;;
52015;SDS011;38032;53.326;6.472;2022-12-19T06:11:20;45.05;;;23.63;;
52015;SDS011;38032;53.326;6.472;2022-12-19T06:13:47;48.00;;;24.98;;
52015;SDS011;38032;53.326;6.472;2022-12-19T06:16:14;42.97;;;24.08;;
52015;SDS011;38032;53.326;6.472;2022-12-19T06:18:41;49.53;;;25.27;;
52015;SDS011;38032;53.326;6.472;2022-12-19T06:21:09;42.50;;;23.17;;
52015;SDS011;38032;53.326;6.472;2022-12-19T06:23:37;40.60;;;21.63;;
52015;SDS011;38032;53.326;6.472;2022-12-19T06:26:04;42.38;;;21.95;;
52015;SDS011;38032;53.326;6.472;2022-12-19T06:28:31;38.90;;;20.15;;
52015;SDS011;38032;53.326;6.472;2022-12-19T06:30:59;39.63;;;20.25;;
52015;SDS011;38032;53.326;6.472;2022-12-19T06:33:26;39.08;;;20.45;;
52015;SDS011;38032;53.326;6.472;2022-12-19T06:35:57;39.92;;;20.90;;
52015;SDS011;38032;53.326;6.472;2022-12-19T06:38:26;35.63;;;19.38;;
52015;SDS011;38032;53.326;6.472;2022-12-19T06:40:52;36.63;;;20.20;;
52015;SDS011;38032;53.326;6.472;2022-12-19T06:43:37;36.15;;;19.73;;
52015;SDS011;38032;53.326;6.472;2022-12-19T06:46:03;33.13;;;18.60;;
52015;SDS011;38032;53.326;6.472;2022-12-19T06:48:29;34.55;;;19.73;;
52015;SDS011;38032;53.326;6.472;2022-12-19T06:50:56;34.80;;;18.27;;
52015;SDS011;38032;53.326;6.472;2022-12-19T06:53:22;36.78;;;18.63;;
52015;SDS011;38032;53.326;6.472;2022-12-19T06:55:48;36.40;;;18.98;;
52015;SDS011;38032;53.326;6.472;2022-12-19T06:58:16;31.20;;;15.63;;
52015;SDS011;38032;53.326;6.472;2022-12-19T07:00:42;26.02;;;16.20;;
52015;SDS011;38032;53.326;6.472;2022-12-19T07:03:08;30.80;;;17.67;;
52015;SDS011;38032;53.326;6.472;2022-12-19T07:05:37;28.52;;;15.82;;
52015;SDS011;38032;53.326;6.472;2022-12-19T07:08:04;27.00;;;15.85;;
52015;SDS011;38032;53.326;6.472;2022-12-19T07:10:32;23.25;;;13.77;;
52015;SDS011;38032;53.326;6.472;2022-12-19T07:12:57;22.27;;;13.13;;
52015;SDS011;38032;53.326;6.472;2022-12-19T07:15:23;27.08;;;14.90;;
52015;SDS011;38032;53.326;6.472;2022-12-19T07:17:49;23.77;;;14.10;;
52015;SDS011;38032;53.326;6.472;2022-12-19T07:20:15;22.83;;;13.38;;
52015;SDS011;38032;53.326;6.472;2022-12-19T07:22:43;20.80;;;12.27;;
52015;SDS011;38032;53.326;6.472;2022-12-19T07:25:09;21.30;;;13.40;;
52015;SDS011;38032;53.326;6.472;2022-12-19T07:27:35;21.85;;;13.40;;
52015;SDS011;38032;53.326;6.472;2022-12-19T07:30:02;21.55;;;13.05;;
52015;SDS011;38032;53.326;6.472;2022-12-19T07:32:29;20.95;;;12.05;;
52015;SDS011;38032;53.326;6.472;2022-12-19T07:34:55;22.20;;;12.50;;
52015;SDS011;38032;53.326;6.472;2022-12-19T07:37:21;21.90;;;13.15;;
52015;SDS011;38032;53.326;6.472;2022-12-19T07:39:47;19.08;;;12.20;;
52015;SDS011;38032;53.326;6.472;2022-12-19T07:42:13;21.70;;;12.60;;
52015;SDS011;38032;53.326;6.472;2022-12-19T07:44:39;21.00;;;12.15;;
52015;SDS011;38032;53.326;6.472;2022-12-19T07:47:05;23.65;;;12.90;;
52015;SDS011;38032;53.326;6.472;2022-12-19T07:49:37;18.70;;;11.85;;
52015;SDS011;38032;53.326;6.472;2022-12-19T07:52:03;18.58;;;12.02;;
52015;SDS011;38032;53.326;6.472;2022-12-19T07:54:29;20.05;;;11.85;;
52015;SDS011;38032;53.326;6.472;2022-12-19T07:56:55;19.63;;;12.50;;
52015;SDS011;38032;53.326;6.472;2022-12-19T07:59:20;18.10;;;11.77;;
52015;SDS011;38032;53.326;6.472;2022-12-19T08:01:46;18.95;;;12.15;;
52015;SDS011;38032;53.326;6.472;2022-12-19T08:04:12;18.98;;;10.82;;
52015;SDS011;38032;53.326;6.472;2022-12-19T08:06:38;16.52;;;11.23;;
52015;SDS011;38032;53.326;6.472;2022-12-19T08:09:04;18.98;;;11.43;;
52015;SDS011;38032;53.326;6.472;2022-12-19T08:11:30;16.93;;;11.27;;
52015;SDS011;38032;53.326;6.472;2022-12-19T08:13:56;16.83;;;11.68;;
52015;SDS011;38032;53.326;6.472;2022-12-19T08:16:23;17.77;;;10.90;;
52015;SDS011;38032;53.326;6.472;2022-12-19T08:18:50;17.45;;;10.63;;
52015;SDS011;38032;53.326;6.472;2022-12-19T08:21:17;17.25;;;11.57;;
52015;SDS011;38032;53.326;6.472;2022-12-19T08:23:43;16.92;;;10.80;;
52015;SDS011;38032;53.326;6.472;2022-12-19T08:26:12;19.10;;;11.52;;
52015;SDS011;38032;53.326;6.472;2022-12-19T08:28:39;17.98;;;10.90;;
52015;SDS011;38032;53.326;6.472;2022-12-19T08:31:08;17.15;;;11.00;;
52015;SDS011;38032;53.326;6.472;2022-12-19T08:33:35;15.45;;;10.65;;
52015;SDS011;38032;53.326;6.472;2022-12-19T08:36:03;16.85;;;11.30;;
52015;SDS011;38032;53.326;6.472;2022-12-19T08:38:30;14.75;;;9.88;;
52015;SDS011;38032;53.326;6.472;2022-12-19T08:40:56;15.68;;;9.88;;
52015;SDS011;38032;53.326;6.472;2022-12-19T08:43:22;17.50;;;10.25;;
52015;SDS011;38032;53.326;6.472;2022-12-19T08:45:48;14.77;;;10.18;;
52015;SDS011;38032;53.326;6.472;2022-12-19T08:48:15;12.95;;;9.10;;
52015;SDS011;38032;53.326;6.472;2022-12-19T08:50:49;15.27;;;10.07;;
52015;SDS011;38032;53.326;6.472;2022-12-19T08:53:16;15.55;;;10.00;;
52015;SDS011;38032;53.326;6.472;2022-12-19T08:55:42;14.45;;;9.57;;
52015;SDS011;38032;53.326;6.472;2022-12-19T08:58:08;13.90;;;9.93;;
52015;SDS011;38032;53.326;6.472;2022-12-19T09:00:34;14.13;;;9.48;;
52015;SDS011;38032;53.326;6.472;2022-12-19T09:03:00;14.20;;;9.55;;
52015;SDS011;38032;53.326;6.472;2022-12-19T09:05:26;13.85;;;10.35;;
52015;SDS011;38032;53.326;6.472;2022-12-19T09:07:52;12.55;;;8.95;;
52015;SDS011;38032;53.326;6.472;2022-12-19T09:10:18;14.43;;;10.57;;
52015;SDS011;38032;53.326;6.472;2022-12-19T09:12:45;12.45;;;9.10;;
52015;SDS011;38032;53.326;6.472;2022-12-19T09:15:11;15.35;;;10.32;;
52015;SDS011;38032;53.326;6.472;2022-12-19T09:17:36;16.08;;;10.15;;
52015;SDS011;38032;53.326;6.472;2022-12-19T09:20:03;15.50;;;10.57;;
52015;SDS011;38032;53.326;6.472;2022-12-19T09:22:29;14.85;;;10.23;;
52015;SDS011;38032;53.326;6.472;2022-12-19T09:24:55;15.68;;;9.88;;
52015;SDS011;38032;53.326;6.472;2022-12-19T09:27:21;14.43;;;10.18;;
52015;SDS011;38032;53.326;6.472;2022-12-19T09:29:48;13.85;;;9.90;;
52015;SDS011;38032;53.326;6.472;2022-12-19T09:32:13;14.15;;;10.25;;
52015;SDS011;38032;53.326;6.472;2022-12-19T09:34:39;14.45;;;10.38;;
52015;SDS011;38032;53.326;6.472;2022-12-19T09:37:06;15.70;;;10.50;;
52015;SDS011;38032;53.326;6.472;2022-12-19T09:39:34;15.45;;;11.25;;
52015;SDS011;38032;53.326;6.472;2022-12-19T09:42:03;15.90;;;10.45;;
52015;SDS011;38032;53.326;6.472;2022-12-19T09:47:18;15.25;;;10.48;;
52015;SDS011;38032;53.326;6.472;2022-12-19T09:49:48;17.13;;;11.05;;
52015;SDS011;38032;53.326;6.472;2022-12-19T09:52:22;14.18;;;10.38;;
52015;SDS011;38032;53.326;6.472;2022-12-19T09:54:55;15.65;;;11.68;;
52015;SDS011;38032;53.326;6.472;2022-12-19T09:57:22;15.02;;;11.23;;
52015;SDS011;38032;53.326;6.472;2022-12-19T09:59:53;15.27;;;11.65;;
52015;SDS011;38032;53.326;6.472;2022-12-19T10:05:03;15.77;;;11.75;;
52015;SDS011;38032;53.326;6.472;2022-12-19T10:07:36;15.30;;;10.98;;
52015;SDS011;38032;53.326;6.472;2022-12-19T10:10:02;14.98;;;11.02;;
52015;SDS011;38032;53.326;6.472;2022-12-19T10:17:59;14.10;;;10.77;;
52015;SDS011;38032;53.326;6.472;2022-12-19T10:20:26;15.80;;;10.68;;
52015;SDS011;38032;53.326;6.472;2022-12-19T10:23:14;13.48;;;10.93;;
52015;SDS011;38032;53.326;6.472;2022-12-19T10:25:48;15.40;;;11.27;;
52015;SDS011;38032;53.326;6.472;2022-12-19T10:30:44;12.27;;;9.77;;
52015;SDS011;38032;53.326;6.472;2022-12-19T10:33:34;13.88;;;10.35;;
52015;SDS011;38032;53.326;6.472;2022-12-19T10:36:08;13.90;;;10.63;;
52015;SDS011;38032;53.326;6.472;2022-12-19T10:38:41;13.25;;;10.57;;
52015;SDS011;38032;53.326;6.472;2022-12-19T10:41:15;14.63;;;10.88;;
52015;SDS011;38032;53.326;6.472;2022-12-19T10:43:51;16.88;;;9.13;;
52015;SDS011;38032;53.326;6.472;2022-12-19T10:49:09;15.52;;;11.57;;
52015;SDS011;38032;53.326;6.472;2022-12-19T10:51:37;14.23;;;10.55;;
52015;SDS011;38032;53.326;6.472;2022-12-19T10:54:04;12.25;;;9.60;;
52015;SDS011;38032;53.326;6.472;2022-12-19T10:56:30;13.38;;;10.30;;
52015;SDS011;38032;53.326;6.472;2022-12-19T10:58:57;14.20;;;10.55;;
52015;SDS011;38032;53.326;6.472;2022-12-19T11:01:25;12.07;;;9.63;;
52015;SDS011;38032;53.326;6.472;2022-12-19T11:04:12;13.45;;;9.57;;
52015;SDS011;38032;53.326;6.472;2022-12-19T11:06:47;13.27;;;9.68;;
52015;SDS011;38032;53.326;6.472;2022-12-19T11:11:46;12.52;;;9.43;;
52015;SDS011;38032;53.326;6.472;2022-12-19T11:14:22;11.82;;;8.82;;
52015;SDS011;38032;53.326;6.472;2022-12-19T11:16:50;11.90;;;9.10;;
52015;SDS011;38032;53.326;6.472;2022-12-19T11:19:19;13.13;;;9.90;;
52015;SDS011;38032;53.326;6.472;2022-12-19T11:21:46;12.35;;;9.00;;
52015;SDS011;38032;53.326;6.472;2022-12-19T11:24:18;12.82;;;8.45;;
52015;SDS011;38032;53.326;6.472;2022-12-19T11:26:49;10.75;;;9.02;;
52015;SDS011;38032;53.326;6.472;2022-12-19T11:29:20;10.80;;;8.45;;
52015;SDS011;38032;53.326;6.472;2022-12-19T11:32:20;14.73;;;8.52;;
52015;SDS011;38032;53.326;6.472;2022-12-19T11:34:49;10.43;;;8.57;;
52015;SDS011;38032;53.326;6.472;2022-12-19T11:39:47;13.60;;;8.35;;
52015;SDS011;38032;53.326;6.472;2022-12-19T11:42:22;11.98;;;8.80;;
52015;SDS011;38032;53.326;6.472;2022-12-19T11:44:59;10.38;;;7.85;;
52015;SDS011;38032;53.326;6.472;2022-12-19T11:47:38;12.07;;;8.07;;
52015;SDS011;38032;53.326;6.472;2022-12-19T11:50:10;11.48;;;7.70;;
52015;SDS011;38032;53.326;6.472;2022-12-19T11:52:48;9.75;;;7.93;;
52015;SDS011;38032;53.326;6.472;2022-12-19T11:55:19;9.30;;;8.00;;
52015;SDS011;38032;53.326;6.472;2022-12-19T11:57:49;10.95;;;7.45;;
52015;SDS011;38032;53.326;6.472;2022-12-19T12:00:18;10.10;;;7.55;;
52015;SDS011;38032;53.326;6.472;2022-12-19T12:02:50;9.98;;;7.13;;
52015;SDS011;38032;53.326;6.472;2022-12-19T12:10:51;10.10;;;6.78;;
52015;SDS011;38032;53.326;6.472;2022-12-19T12:13:26;9.43;;;7.43;;
52015;SDS011;38032;53.326;6.472;2022-12-19T12:16:08;9.77;;;7.07;;
52015;SDS011;38032;53.326;6.472;2022-12-19T12:24:37;9.85;;;7.18;;
52015;SDS011;38032;53.326;6.472;2022-12-19T12:29:57;8.57;;;6.70;;
52015;SDS011;38032;53.326;6.472;2022-12-19T12:32:35;11.52;;;7.30;;
52015;SDS011;38032;53.326;6.472;2022-12-19T12:35:17;8.27;;;6.68;;
52015;SDS011;38032;53.326;6.472;2022-12-19T12:40:33;12.00;;;6.97;;
52015;SDS011;38032;53.326;6.472;2022-12-19T12:45:44;9.85;;;6.90;;
52015;SDS011;38032;53.326;6.472;2022-12-19T12:48:19;7.68;;;6.28;;
52015;SDS011;38032;53.326;6.472;2022-12-19T12:50:50;8.50;;;6.38;;
52015;SDS011;38032;53.326;6.472;2022-12-19T12:53:19;9.27;;;6.82;;
52015;SDS011;38032;53.326;6.472;2022-12-19T12:55:49;8.57;;;7.15;;
52015;SDS011;38032;53.326;6.472;2022-12-19T13:01:08;8.43;;;6.75;;
52015;SDS011;38032;53.326;6.472;2022-12-19T13:03:36;9.70;;;7.38;;
52015;SDS011;38032;53.326;6.472;2022-12-19T13:06:11;8.70;;;7.25;;
52015;SDS011;38032;53.326;6.472;2022-12-19T13:09:03;11.00;;;7.20;;
52015;SDS011;38032;53.326;6.472;2022-12-19T13:11:49;9.30;;;7.82;;
52015;SDS011;38032;53.326;6.472;2022-12-19T13:14:44;8.90;;;6.80;;
52015;SDS011;38032;53.326;6.472;2022-12-19T13:24:54;9.88;;;6.88;;
52015;SDS011;38032;53.326;6.472;2022-12-19T13:32:24;9.82;;;7.38;;
52015;SDS011;38032;53.326;6.472;2022-12-19T13:34:55;8.73;;;6.22;;
52015;SDS011;38032;53.326;6.472;2022-12-19T13:37:27;8.07;;;6.40;;
52015;SDS011;38032;53.326;6.472;2022-12-19T13:42:25;8.98;;;7.10;;
52015;SDS011;38032;53.326;6.472;2022-12-19T13:45:12;8.57;;;6.65;;
52015;SDS011;38032;53.326;6.472;2022-12-19T13:47:47;7.45;;;6.53;;
52015;SDS011;38032;53.326;6.472;2022-12-19T13:50:24;9.65;;;6.78;;
52015;SDS011;38032;53.326;6.472;2022-12-19T13:53:00;13.43;;;7.88;;
52015;SDS011;38032;53.326;6.472;2022-12-19T13:55:28;9.18;;;6.75;;
52015;SDS011;38032;53.326;6.472;2022-12-19T13:57:54;8.50;;;6.95;;
52015;SDS011;38032;53.326;6.472;2022-12-19T14:00:21;9.40;;;6.80;;
52015;SDS011;38032;53.326;6.472;2022-12-19T14:02:57;11.43;;;7.07;;
52015;SDS011;38032;53.326;6.472;2022-12-19T14:05:26;9.30;;;6.82;;
52015;SDS011;38032;53.326;6.472;2022-12-19T14:07:55;9.75;;;7.07;;
52015;SDS011;38032;53.326;6.472;2022-12-19T14:10:27;10.50;;;7.20;;
52015;SDS011;38032;53.326;6.472;2022-12-19T14:12:57;10.63;;;7.18;;
52015;SDS011;38032;53.326;6.472;2022-12-19T14:15:44;9.95;;;7.28;;
52015;SDS011;38032;53.326;6.472;2022-12-19T14:18:15;14.32;;;7.85;;
52015;SDS011;38032;53.326;6.472;2022-12-19T14:20:45;15.48;;;7.38;;
52015;SDS011;38032;53.326;6.472;2022-12-19T14:23:13;9.95;;;7.90;;
52015;SDS011;38032;53.326;6.472;2022-12-19T14:28:05;13.25;;;8.63;;
52015;SDS011;38032;53.326;6.472;2022-12-19T14:30:37;14.88;;;8.93;;
52015;SDS011;38032;53.326;6.472;2022-12-19T14:33:09;13.98;;;9.70;;
52015;SDS011;38032;53.326;6.472;2022-12-19T14:35:48;13.55;;;9.15;;
52015;SDS011;38032;53.326;6.472;2022-12-19T14:38:18;15.20;;;8.85;;
52015;SDS011;38032;53.326;6.472;2022-12-19T14:40:47;11.18;;;8.57;;
52015;SDS011;38032;53.326;6.472;2022-12-19T14:43:20;12.35;;;9.05;;
52015;SDS011;38032;53.326;6.472;2022-12-19T14:46:23;16.33;;;9.15;;
52015;SDS011;38032;53.326;6.472;2022-12-19T14:48:53;14.35;;;9.35;;
52015;SDS011;38032;53.326;6.472;2022-12-19T14:54:01;12.95;;;9.15;;
52015;SDS011;38032;53.326;6.472;2022-12-19T14:56:31;11.73;;;8.80;;
52015;SDS011;38032;53.326;6.472;2022-12-19T14:58:58;12.88;;;8.55;;
52015;SDS011;38032;53.326;6.472;2022-12-19T15:01:26;13.98;;;8.63;;
52015;SDS011;38032;53.326;6.472;2022-12-19T15:03:59;10.32;;;8.05;;
52015;SDS011;38032;53.326;6.472;2022-12-19T15:06:29;12.50;;;7.82;;
52015;SDS011;38032;53.326;6.472;2022-12-19T15:08:59;12.43;;;8.20;;
52015;SDS011;38032;53.326;6.472;2022-12-19T15:11:29;9.55;;;7.43;;
52015;SDS011;38032;53.326;6.472;2022-12-19T15:14:26;11.07;;;7.90;;
52015;SDS011;38032;53.326;6.472;2022-12-19T15:17:01;9.45;;;7.07;;
52015;SDS011;38032;53.326;6.472;2022-12-19T15:19:29;8.23;;;6.50;;
52015;SDS011;38032;53.326;6.472;2022-12-19T15:21:55;10.55;;;6.57;;
52015;SDS011;38032;53.326;6.472;2022-12-19T15:24:21;10.60;;;7.20;;
52015;SDS011;38032;53.326;6.472;2022-12-19T15:26:49;10.98;;;6.78;;
52015;SDS011;38032;53.326;6.472;2022-12-19T15:29:17;9.10;;;7.07;;
52015;SDS011;38032;53.326;6.472;2022-12-19T15:31:43;9.57;;;6.20;;
52015;SDS011;38032;53.326;6.472;2022-12-19T15:34:16;9.23;;;6.43;;
52015;SDS011;38032;53.326;6.472;2022-12-19T15:36:48;9.95;;;6.30;;
52015;SDS011;38032;53.326;6.472;2022-12-19T15:39:15;9.95;;;6.38;;
52015;SDS011;38032;53.326;6.472;2022-12-19T15:41:42;8.55;;;6.50;;
52015;SDS011;38032;53.326;6.472;2022-12-19T15:44:14;9.40;;;6.70;;
52015;SDS011;38032;53.326;6.472;2022-12-19T15:46:44;11.20;;;6.80;;
52015;SDS011;38032;53.326;6.472;2022-12-19T15:49:13;9.02;;;6.22;;
52015;SDS011;38032;53.326;6.472;2022-12-19T15:51:42;9.75;;;6.47;;
52015;SDS011;38032;53.326;6.472;2022-12-19T15:54:08;8.85;;;6.32;;
52015;SDS011;38032;53.326;6.472;2022-12-19T15:56:34;10.10;;;6.13;;
52015;SDS011;38032;53.326;6.472;2022-12-19T15:59:03;9.70;;;6.10;;
52015;SDS011;38032;53.326;6.472;2022-12-19T16:01:31;8.70;;;6.28;;
52015;SDS011;38032;53.326;6.472;2022-12-19T16:03:58;7.93;;;6.18;;
52015;SDS011;38032;53.326;6.472;2022-12-19T16:06:25;7.30;;;5.43;;
52015;SDS011;38032;53.326;6.472;2022-12-19T16:08:51;7.70;;;5.72;;